N963SG -KSAN
Flight info
| Callsign | N963SG |
|---|---|
| Flight time | N/A |
| Altitude | VFR |
| Route | |
| Aircraft | BE58/L-VGD/C |
Departure
| Time | N/A |
|---|---|
| Airport | - |
Arrival
| Time | 2026-04-20 04:53 |
|---|---|
| Airport | San Diego International Airport (KSAN) |
| Time | Latitude | Longitude | Altitude | Speed | Heading |
|---|---|---|---|---|---|
| 2026-04-20 04:21 | 33.88904 | -117.05679 | 6562 ft | 170 kts | 220° |
| 2026-04-20 04:21 | 33.88005 | -117.06612 | 6511 ft | 175 kts | 217° |
| 2026-04-20 04:21 | 33.87027 | -117.07492 | 6539 ft | 174 kts | 213° |
| 2026-04-20 04:22 | 33.86021 | -117.08323 | 6514 ft | 177 kts | 211° |
| 2026-04-20 04:22 | 33.84976 | -117.09113 | 6499 ft | 177 kts | 210° |
| 2026-04-20 04:22 | 33.83905 | -117.09820 | 6512 ft | 175 kts | 205° |
| 2026-04-20 04:22 | 33.82771 | -117.10410 | 6501 ft | 178 kts | 200° |
| 2026-04-20 04:23 | 33.81610 | -117.10935 | 6536 ft | 178 kts | 198° |
| 2026-04-20 04:23 | 33.80443 | -117.11375 | 6548 ft | 179 kts | 196° |
| 2026-04-20 04:23 | 33.79240 | -117.11800 | 6541 ft | 181 kts | 196° |
| 2026-04-20 04:23 | 33.78035 | -117.12259 | 6571 ft | 182 kts | 197° |
| 2026-04-20 04:24 | 33.76822 | -117.12705 | 6582 ft | 183 kts | 196° |
| 2026-04-20 04:24 | 33.75592 | -117.13155 | 6581 ft | 185 kts | 196° |
| 2026-04-20 04:24 | 33.74359 | -117.13613 | 6637 ft | 187 kts | 197° |
| 2026-04-20 04:24 | 33.73104 | -117.14084 | 6577 ft | 189 kts | 198° |
| 2026-04-20 04:25 | 33.72279 | -117.14425 | 6568 ft | 189 kts | 199° |
| 2026-04-20 04:25 | 33.70657 | -117.15181 | 6529 ft | 190 kts | 201° |
| 2026-04-20 04:25 | 33.69430 | -117.15800 | 6451 ft | 192 kts | 202° |
| 2026-04-20 04:25 | 33.68607 | -117.16221 | 6440 ft | 192 kts | 202° |
| 2026-04-20 04:26 | 33.66994 | -117.17096 | 6415 ft | 191 kts | 202° |
| 2026-04-20 04:26 | 33.65773 | -117.17709 | 6434 ft | 188 kts | 200° |
| 2026-04-20 04:26 | 33.64974 | -117.18102 | 6452 ft | 186 kts | 200° |
| 2026-04-20 04:26 | 33.63768 | -117.18680 | 6449 ft | 186 kts | 199° |
| 2026-04-20 04:27 | 33.62563 | -117.19250 | 6406 ft | 185 kts | 200° |
| 2026-04-20 04:27 | 33.61378 | -117.19859 | 6423 ft | 185 kts | 202° |
| 2026-04-20 04:27 | 33.60223 | -117.20517 | 6460 ft | 183 kts | 204° |
| 2026-04-20 04:27 | 33.59083 | -117.21221 | 6455 ft | 185 kts | 205° |
| 2026-04-20 04:28 | 33.57942 | -117.21925 | 6500 ft | 183 kts | 205° |
| 2026-04-20 04:28 | 33.56813 | -117.22591 | 6479 ft | 185 kts | 204° |
| 2026-04-20 04:28 | 33.55650 | -117.23259 | 6448 ft | 185 kts | 200° |
| 2026-04-20 04:28 | 33.54437 | -117.23774 | 6463 ft | 183 kts | 196° |
| 2026-04-20 04:29 | 33.53207 | -117.24215 | 6380 ft | 187 kts | 195° |
| 2026-04-20 04:29 | 33.51961 | -117.24636 | 6401 ft | 184 kts | 193° |
| 2026-04-20 04:29 | 33.50719 | -117.24968 | 6420 ft | 182 kts | 188° |
| 2026-04-20 04:29 | 33.49464 | -117.25154 | 6393 ft | 184 kts | 184° |
| 2026-04-20 04:30 | 33.48196 | -117.25254 | 6445 ft | 181 kts | 181° |
| 2026-04-20 04:30 | 33.46921 | -117.25215 | 6416 ft | 183 kts | 175° |
| 2026-04-20 04:30 | 33.45672 | -117.25006 | 6437 ft | 182 kts | 171° |
| 2026-04-20 04:30 | 33.44438 | -117.24707 | 6459 ft | 181 kts | 169° |
| 2026-04-20 04:31 | 33.43193 | -117.24385 | 6429 ft | 183 kts | 168° |
| 2026-04-20 04:31 | 33.41943 | -117.24128 | 6463 ft | 181 kts | 174° |
| 2026-04-20 04:31 | 33.40677 | -117.23998 | 6444 ft | 183 kts | 177° |
| 2026-04-20 04:31 | 33.39416 | -117.24007 | 6444 ft | 182 kts | 182° |
| 2026-04-20 04:32 | 33.38147 | -117.24106 | 6451 ft | 182 kts | 184° |
| 2026-04-20 04:32 | 33.36878 | -117.24233 | 6429 ft | 183 kts | 184° |
| 2026-04-20 04:32 | 33.35626 | -117.24367 | 6436 ft | 183 kts | 185° |
| 2026-04-20 04:32 | 33.34352 | -117.24537 | 6423 ft | 183 kts | 186° |
| 2026-04-20 04:33 | 33.33097 | -117.24699 | 6475 ft | 180 kts | 186° |
| 2026-04-20 04:33 | 33.31842 | -117.24861 | 6447 ft | 182 kts | 185° |
| 2026-04-20 04:33 | 33.30612 | -117.25064 | 6487 ft | 180 kts | 189° |
| 2026-04-20 04:33 | 33.29382 | -117.25410 | 6482 ft | 181 kts | 194° |
| 2026-04-20 04:34 | 33.28173 | -117.25827 | 6504 ft | 180 kts | 195° |
| 2026-04-20 04:34 | 33.26975 | -117.26275 | 6521 ft | 181 kts | 197° |
| 2026-04-20 04:34 | 33.25775 | -117.26743 | 6511 ft | 182 kts | 197° |
| 2026-04-20 04:34 | 33.24584 | -117.27242 | 6533 ft | 181 kts | 200° |
| 2026-04-20 04:35 | 33.23432 | -117.27823 | 6528 ft | 182 kts | 202° |
| 2026-04-20 04:35 | 33.22293 | -117.28497 | 6529 ft | 182 kts | 205° |
| 2026-04-20 04:35 | 33.21171 | -117.29222 | 6536 ft | 182 kts | 206° |
| 2026-04-20 04:35 | 33.20050 | -117.29940 | 6546 ft | 183 kts | 206° |
| 2026-04-20 04:36 | 33.17799 | -117.31310 | 6531 ft | 185 kts | 205° |
| 2026-04-20 04:36 | 33.16641 | -117.31981 | 6469 ft | 185 kts | 203° |
| 2026-04-20 04:36 | 33.15455 | -117.32550 | 6357 ft | 184 kts | 197° |
| 2026-04-20 04:37 | 33.14211 | -117.32954 | 6164 ft | 185 kts | 190° |
| 2026-04-20 04:37 | 33.12931 | -117.33143 | 6005 ft | 185 kts | 182° |
| 2026-04-20 04:37 | 33.11642 | -117.33099 | 5833 ft | 186 kts | 174° |
| 2026-04-20 04:37 | 33.10367 | -117.32858 | 5607 ft | 189 kts | 169° |
| 2026-04-20 04:38 | 33.09128 | -117.32501 | 5643 ft | 179 kts | 166° |
| 2026-04-20 04:38 | 33.07920 | -117.32075 | 5467 ft | 183 kts | 162° |
| 2026-04-20 04:38 | 33.06703 | -117.31558 | 5257 ft | 187 kts | 161° |
| 2026-04-20 04:38 | 33.05462 | -117.31049 | 5097 ft | 187 kts | 162° |
| 2026-04-20 04:39 | 33.04235 | -117.30564 | 4940 ft | 188 kts | 162° |
| 2026-04-20 04:39 | 33.02982 | -117.30076 | 4763 ft | 189 kts | 163° |
| 2026-04-20 04:39 | 33.01731 | -117.29597 | 4618 ft | 188 kts | 162° |
| 2026-04-20 04:39 | 33.00476 | -117.29130 | 4478 ft | 188 kts | 164° |
| 2026-04-20 04:40 | 32.99226 | -117.28726 | 4333 ft | 188 kts | 166° |
| 2026-04-20 04:40 | 32.97945 | -117.28362 | 4184 ft | 188 kts | 167° |
| 2026-04-20 04:40 | 32.96661 | -117.28028 | 4043 ft | 188 kts | 168° |
| 2026-04-20 04:40 | 32.95381 | -117.27751 | 3894 ft | 189 kts | 170° |
| 2026-04-20 04:41 | 32.94081 | -117.27475 | 3757 ft | 189 kts | 170° |
| 2026-04-20 04:41 | 32.92787 | -117.27215 | 3627 ft | 189 kts | 171° |
| 2026-04-20 04:41 | 32.91484 | -117.26968 | 3516 ft | 188 kts | 171° |
| 2026-04-20 04:41 | 32.90230 | -117.26718 | 3485 ft | 184 kts | 170° |
| 2026-04-20 04:42 | 32.88989 | -117.26431 | 3476 ft | 180 kts | 167° |
| 2026-04-20 04:42 | 32.87778 | -117.26093 | 3451 ft | 178 kts | 167° |
| 2026-04-20 04:42 | 32.86582 | -117.25744 | 3458 ft | 176 kts | 165° |
| 2026-04-20 04:42 | 32.85397 | -117.25393 | 3443 ft | 176 kts | 166° |
| 2026-04-20 04:43 | 32.84226 | -117.25034 | 3490 ft | 172 kts | 165° |
| 2026-04-20 04:43 | 32.83071 | -117.24634 | 3406 ft | 174 kts | 162° |
| 2026-04-20 04:43 | 32.81913 | -117.24153 | 3198 ft | 178 kts | 160° |
| 2026-04-20 04:43 | 32.80766 | -117.23625 | 2997 ft | 175 kts | 157° |
| 2026-04-20 04:44 | 32.79653 | -117.23083 | 2762 ft | 170 kts | 157° |
| 2026-04-20 04:44 | 32.78578 | -117.22524 | 2473 ft | 167 kts | 156° |
| 2026-04-20 04:44 | 32.77560 | -117.21890 | 2187 ft | 164 kts | 147° |
| 2026-04-20 04:44 | 32.76716 | -117.21001 | 1915 ft | 161 kts | 132° |
| 2026-04-20 04:45 | 32.76100 | -117.19907 | 1713 ft | 157 kts | 118° |
| 2026-04-20 04:45 | 32.75653 | -117.18760 | 1565 ft | 152 kts | 112° |
| 2026-04-20 04:45 | 32.75278 | -117.17588 | 1424 ft | 150 kts | 110° |
| 2026-04-20 04:45 | 32.74916 | -117.16435 | 1368 ft | 146 kts | 115° |
| 2026-04-20 04:46 | 32.74435 | -117.15431 | 1308 ft | 131 kts | 132° |
| 2026-04-20 04:46 | 32.73715 | -117.14893 | 1214 ft | 121 kts | 166° |
| 2026-04-20 04:46 | 32.72881 | -117.14870 | 1178 ft | 118 kts | 200° |
| 2026-04-20 04:46 | 32.72372 | -117.15512 | 1243 ft | 109 kts | 261° |
| 2026-04-20 04:47 | 32.72557 | -117.16455 | 1274 ft | 132 kts | 295° |
| 2026-04-20 04:47 | 32.72978 | -117.17470 | 1454 ft | 141 kts | 295° |
| 2026-04-20 04:47 | 32.73398 | -117.18621 | 1425 ft | 161 kts | 291° |
| 2026-04-20 04:47 | 32.73788 | -117.19879 | 1391 ft | 161 kts | 288° |
| 2026-04-20 04:48 | 32.74142 | -117.21098 | 1267 ft | 150 kts | 289° |
| 2026-04-20 04:48 | 32.74673 | -117.22087 | 1219 ft | 137 kts | 323° |
| 2026-04-20 04:48 | 32.75579 | -117.22354 | 1166 ft | 140 kts | 0° |
| 2026-04-20 04:48 | 32.76505 | -117.21986 | 1168 ft | 147 kts | 36° |
| 2026-04-20 04:49 | 32.77080 | -117.21001 | 1225 ft | 146 kts | 74° |
| 2026-04-20 04:49 | 32.77109 | -117.19847 | 1312 ft | 139 kts | 99° |
| 2026-04-20 04:49 | 32.76859 | -117.18766 | 1323 ft | 137 kts | 110° |
| 2026-04-20 04:49 | 32.76524 | -117.17692 | 1265 ft | 140 kts | 111° |
| 2026-04-20 04:50 | 32.76147 | -117.16624 | 1265 ft | 139 kts | 114° |
| 2026-04-20 04:50 | 32.75760 | -117.15577 | 1273 ft | 138 kts | 114° |
| 2026-04-20 04:50 | 32.75364 | -117.14545 | 1232 ft | 136 kts | 115° |
| 2026-04-20 04:50 | 32.74881 | -117.13606 | 1218 ft | 130 kts | 136° |
| 2026-04-20 04:51 | 32.74086 | -117.13144 | 1234 ft | 128 kts | 175° |
| 2026-04-20 04:51 | 32.73249 | -117.13394 | 1200 ft | 129 kts | 217° |
| 2026-04-20 04:51 | 32.72722 | -117.14220 | 1113 ft | 117 kts | 251° |
| 2026-04-20 04:51 | 32.72582 | -117.15086 | 941 ft | 102 kts | 265° |
| 2026-04-20 04:52 | 32.72629 | -117.15895 | 703 ft | 94 kts | 280° |
| 2026-04-20 04:52 | 32.72790 | -117.16632 | 447 ft | 91 kts | 287° |
| 2026-04-20 04:52 | 32.72966 | -117.17376 | 198 ft | 96 kts | 284° |
| 2026-04-20 04:52 | 32.73151 | -117.18125 | 56 ft | 94 kts | 285° |
| 2026-04-20 04:53 | 32.73310 | -117.18770 | 19 ft | 60 kts | 287° |
| 2026-04-20 04:53 | 32.73405 | -117.19099 | 16 ft | 21 kts | 336° |
| 2026-04-20 04:53 | 32.73478 | -117.19048 | 16 ft | 2 kts | 60° |
| 2026-04-20 04:53 | 32.73480 | -117.19045 | 16 ft | 0 kts | 65° |
| 2026-04-20 04:54 | 32.73482 | -117.19039 | 16 ft | 4 kts | 69° |
| 2026-04-20 04:54 | 32.73464 | -117.18936 | 16 ft | 21 kts | 107° |
| 2026-04-20 04:54 | 32.73415 | -117.18732 | 15 ft | 28 kts | 105° |
| 2026-04-20 04:54 | 32.73359 | -117.18502 | 17 ft | 29 kts | 106° |
| 2026-04-20 04:55 | 32.73302 | -117.18264 | 16 ft | 31 kts | 106° |
| 2026-04-20 04:55 | 32.73249 | -117.18049 | 16 ft | 23 kts | 104° |
| 2026-04-20 04:55 | 32.73340 | -117.17958 | 16 ft | 20 kts | 15° |
| 2026-04-20 04:55 | 32.73437 | -117.17968 | 16 ft | 0 kts | 353° |